Sanford, Michigan
Current Conditions -  °F | °C
As of 4:31 PM on Saturday 25 Oct 2014 (Local Time) from KIKW Reporting Station
Clear Clear  
Wind Chill: 67°   Ceiling: Unl
Heat Index: 67°   Visibility: 7mi
Dew Point: 32°   Wind: 16mph
Humidity: 28%   Direction: 290°WNW
Pressure: 29.7"   Gusts: 30mph
Location:  43.67°N, 84.38°W
Report Text: KIKW 252031Z AUTO 29014G26KT 7SM CLR 19/00 A2970 RMK AO2 T01920001
Loading
Personal Weather Stations






























Interactive Weather Map New forecast layout! Learn more

10-Day Weather Forecast

Advertisements
Track Severe Weather on mobile